Coleridge, North Carolina
Current Conditions -  °F | °C
As of 9:15 AM on Sunday 21 Dec 2014 (Local Time) from K5W8 Reporting Station
Overcast Overcast  
Wind Chill: 36°   Ceiling: 2800
Heat Index: 40°   Visibility: 10mi
Dew Point: 36°   Wind: 5mph
Humidity: 85%   Direction: 60°ENE
Pressure: 30.3"   Gusts: NA
Location:  35.6832°N, 79.6174°W
Report Text: K5W8 211415Z AUTO 06004KT 10SM OVC028 04/02 A3030 RMK AO2 T00430020
Loading
Personal Weather Stations






























Interactive Weather Map New forecast layout! Learn more

10-Day Weather Forecast

Advertisements
Track Severe Weather on mobile